sensor_id;sensor_type;location;lat;lon;timestamp;P1;durP1;ratioP1;P2;durP2;ratioP2
45314;SDS011;31051;51.540;5.852;2023-04-24T00:10:15;9.0;;;8.2;;
45314;SDS011;31051;51.540;5.852;2023-04-24T00:23:14;9.6;;;8.8;;
45314;SDS011;31051;51.540;5.852;2023-04-24T00:36:13;10.4;;;9.4;;
45314;SDS011;31051;51.540;5.852;2023-04-24T00:49:12;10.5;;;9.1;;
45314;SDS011;31051;51.540;5.852;2023-04-24T01:02:12;10.8;;;9.5;;
45314;SDS011;31051;51.540;5.852;2023-04-24T01:15:11;11.9;;;10.7;;
45314;SDS011;31051;51.540;5.852;2023-04-24T01:28:10;12.5;;;11.2;;
45314;SDS011;31051;51.540;5.852;2023-04-24T01:41:09;14.2;;;12.7;;
45314;SDS011;31051;51.540;5.852;2023-04-24T01:54:09;14.9;;;13.3;;
45314;SDS011;31051;51.540;5.852;2023-04-24T02:07:08;15.5;;;13.9;;
45314;SDS011;31051;51.540;5.852;2023-04-24T02:20:07;17.8;;;15.9;;
45314;SDS011;31051;51.540;5.852;2023-04-24T02:33:07;18.8;;;16.9;;
45314;SDS011;31051;51.540;5.852;2023-04-24T02:46:06;17.8;;;16.0;;
45314;SDS011;31051;51.540;5.852;2023-04-24T02:59:05;17.3;;;15.6;;
45314;SDS011;31051;51.540;5.852;2023-04-24T03:12:04;17.3;;;15.4;;
45314;SDS011;31051;51.540;5.852;2023-04-24T03:25:04;16.0;;;14.4;;
45314;SDS011;31051;51.540;5.852;2023-04-24T03:38:03;13.6;;;12.1;;
45314;SDS011;31051;51.540;5.852;2023-04-24T03:51:02;14.2;;;12.6;;
45314;SDS011;31051;51.540;5.852;2023-04-24T04:04:02;12.9;;;11.5;;
45314;SDS011;31051;51.540;5.852;2023-04-24T04:17:01;11.9;;;10.3;;
45314;SDS011;31051;51.540;5.852;2023-04-24T04:30:00;11.3;;;10.1;;
45314;SDS011;31051;51.540;5.852;2023-04-24T04:42:59;11.2;;;10.0;;
45314;SDS011;31051;51.540;5.852;2023-04-24T04:55:59;11.2;;;10.1;;
45314;SDS011;31051;51.540;5.852;2023-04-24T05:08:58;10.2;;;9.3;;
45314;SDS011;31051;51.540;5.852;2023-04-24T05:21:57;10.4;;;9.5;;
45314;SDS011;31051;51.540;5.852;2023-04-24T05:34:57;10.2;;;9.3;;
45314;SDS011;31051;51.540;5.852;2023-04-24T05:47:56;9.5;;;8.7;;
45314;SDS011;31051;51.540;5.852;2023-04-24T06:00:55;7.7;;;6.9;;
45314;SDS011;31051;51.540;5.852;2023-04-24T06:13:54;4.0;;;3.6;;
45314;SDS011;31051;51.540;5.852;2023-04-24T06:26:54;3.0;;;2.5;;
45314;SDS011;31051;51.540;5.852;2023-04-24T06:39:53;2.6;;;2.0;;
45314;SDS011;31051;51.540;5.852;2023-04-24T06:52:52;2.0;;;1.9;;
45314;SDS011;31051;51.540;5.852;2023-04-24T07:05:51;2.2;;;1.9;;
45314;SDS011;31051;51.540;5.852;2023-04-24T07:18:51;1.7;;;1.5;;
45314;SDS011;31051;51.540;5.852;2023-04-24T07:31:50;2.2;;;1.9;;
45314;SDS011;31051;51.540;5.852;2023-04-24T07:44:49;4.6;;;4.2;;
45314;SDS011;31051;51.540;5.852;2023-04-24T07:57:48;8.7;;;7.8;;
45314;SDS011;31051;51.540;5.852;2023-04-24T08:10:48;9.5;;;6.9;;
45314;SDS011;31051;51.540;5.852;2023-04-24T08:23:47;7.6;;;5.8;;
45314;SDS011;31051;51.540;5.852;2023-04-24T08:36:46;10.4;;;6.6;;
45314;SDS011;31051;51.540;5.852;2023-04-24T08:49:45;11.8;;;5.7;;
45314;SDS011;31051;51.540;5.852;2023-04-24T09:02:45;10.0;;;4.7;;
45314;SDS011;31051;51.540;5.852;2023-04-24T09:15:44;9.4;;;4.0;;
45314;SDS011;31051;51.540;5.852;2023-04-24T09:28:43;9.7;;;3.8;;
45314;SDS011;31051;51.540;5.852;2023-04-24T09:41:42;11.3;;;4.2;;
45314;SDS011;31051;51.540;5.852;2023-04-24T09:54:42;10.8;;;4.1;;
45314;SDS011;31051;51.540;5.852;2023-04-24T10:07:41;8.0;;;3.4;;
45314;SDS011;31051;51.540;5.852;2023-04-24T10:20:40;9.8;;;3.8;;
45314;SDS011;31051;51.540;5.852;2023-04-24T10:33:40;8.9;;;3.5;;
45314;SDS011;31051;51.540;5.852;2023-04-24T10:46:39;7.0;;;3.1;;
45314;SDS011;31051;51.540;5.852;2023-04-24T10:59:38;5.3;;;2.5;;
45314;SDS011;31051;51.540;5.852;2023-04-24T11:12:37;4.5;;;2.0;;
45314;SDS011;31051;51.540;5.852;2023-04-24T11:25:37;3.9;;;1.6;;
45314;SDS011;31051;51.540;5.852;2023-04-24T11:38:36;3.5;;;1.6;;
45314;SDS011;31051;51.540;5.852;2023-04-24T11:51:35;3.3;;;1.4;;
45314;SDS011;31051;51.540;5.852;2023-04-24T12:04:34;3.3;;;1.2;;
45314;SDS011;31051;51.540;5.852;2023-04-24T12:17:34;4.0;;;1.6;;
45314;SDS011;31051;51.540;5.852;2023-04-24T12:30:33;4.4;;;1.5;;
45314;SDS011;31051;51.540;5.852;2023-04-24T12:43:32;3.4;;;1.5;;
45314;SDS011;31051;51.540;5.852;2023-04-24T12:56:31;3.8;;;1.6;;
45314;SDS011;31051;51.540;5.852;2023-04-24T13:09:31;3.6;;;1.5;;
45314;SDS011;31051;51.540;5.852;2023-04-24T13:22:30;4.4;;;1.5;;
45314;SDS011;31051;51.540;5.852;2023-04-24T13:35:28;2.5;;;1.3;;
45314;SDS011;31051;51.540;5.852;2023-04-24T13:48:18;2.4;;;1.0;;
45314;SDS011;31051;51.540;5.852;2023-04-24T14:01:17;2.9;;;1.3;;
45314;SDS011;31051;51.540;5.852;2023-04-24T14:14:16;2.7;;;1.3;;
45314;SDS011;31051;51.540;5.852;2023-04-24T14:27:15;3.6;;;1.7;;
45314;SDS011;31051;51.540;5.852;2023-04-24T14:40:15;3.9;;;1.7;;
45314;SDS011;31051;51.540;5.852;2023-04-24T14:53:14;3.9;;;1.7;;
45314;SDS011;31051;51.540;5.852;2023-04-24T15:06:13;3.6;;;1.4;;
45314;SDS011;31051;51.540;5.852;2023-04-24T15:19:12;4.0;;;1.8;;
45314;SDS011;31051;51.540;5.852;2023-04-24T15:32:12;3.4;;;1.7;;
45314;SDS011;31051;51.540;5.852;2023-04-24T15:45:11;3.4;;;1.6;;
45314;SDS011;31051;51.540;5.852;2023-04-24T15:58:10;4.0;;;2.0;;
45314;SDS011;31051;51.540;5.852;2023-04-24T16:11:10;5.6;;;2.5;;
45314;SDS011;31051;51.540;5.852;2023-04-24T16:24:09;6.8;;;3.0;;
45314;SDS011;31051;51.540;5.852;2023-04-24T16:37:08;7.3;;;2.8;;
45314;SDS011;31051;51.540;5.852;2023-04-24T16:50:07;7.5;;;2.8;;
45314;SDS011;31051;51.540;5.852;2023-04-24T17:03:07;5.0;;;2.4;;
45314;SDS011;31051;51.540;5.852;2023-04-24T17:16:06;6.8;;;2.9;;
45314;SDS011;31051;51.540;5.852;2023-04-24T17:29:05;6.5;;;3.0;;
45314;SDS011;31051;51.540;5.852;2023-04-24T17:42:05;7.7;;;3.0;;
45314;SDS011;31051;51.540;5.852;2023-04-24T17:55:04;7.1;;;2.9;;
45314;SDS011;31051;51.540;5.852;2023-04-24T18:08:03;8.2;;;3.0;;
45314;SDS011;31051;51.540;5.852;2023-04-24T18:21:02;8.3;;;3.4;;
45314;SDS011;31051;51.540;5.852;2023-04-24T18:34:02;7.6;;;3.5;;
45314;SDS011;31051;51.540;5.852;2023-04-24T18:47:01;9.5;;;3.9;;
45314;SDS011;31051;51.540;5.852;2023-04-24T19:00:00;9.8;;;3.9;;
45314;SDS011;31051;51.540;5.852;2023-04-24T19:12:59;9.7;;;4.4;;
45314;SDS011;31051;51.540;5.852;2023-04-24T19:25:59;10.0;;;4.5;;
45314;SDS011;31051;51.540;5.852;2023-04-24T19:38:58;12.0;;;5.2;;
45314;SDS011;31051;51.540;5.852;2023-04-24T19:51:57;10.3;;;5.1;;
45314;SDS011;31051;51.540;5.852;2023-04-24T20:04:56;11.7;;;5.5;;
45314;SDS011;31051;51.540;5.852;2023-04-24T20:17:56;13.0;;;5.2;;
45314;SDS011;31051;51.540;5.852;2023-04-24T20:30:55;13.3;;;5.4;;
45314;SDS011;31051;51.540;5.852;2023-04-24T20:43:54;12.9;;;5.2;;
45314;SDS011;31051;51.540;5.852;2023-04-24T20:56:53;13.4;;;5.4;;
45314;SDS011;31051;51.540;5.852;2023-04-24T21:09:52;12.0;;;5.3;;
45314;SDS011;31051;51.540;5.852;2023-04-24T21:22:52;12.2;;;5.4;;
45314;SDS011;31051;51.540;5.852;2023-04-24T21:35:51;13.4;;;5.7;;
45314;SDS011;31051;51.540;5.852;2023-04-24T21:48:50;13.6;;;5.8;;
45314;SDS011;31051;51.540;5.852;2023-04-24T22:01:49;13.0;;;5.4;;
45314;SDS011;31051;51.540;5.852;2023-04-24T22:14:49;14.4;;;5.8;;
45314;SDS011;31051;51.540;5.852;2023-04-24T22:40:47;14.1;;;5.9;;
45314;SDS011;31051;51.540;5.852;2023-04-24T22:53:46;15.0;;;5.8;;
45314;SDS011;31051;51.540;5.852;2023-04-24T23:06:46;13.6;;;6.0;;
45314;SDS011;31051;51.540;5.852;2023-04-24T23:19:45;12.1;;;5.8;;
45314;SDS011;31051;51.540;5.852;2023-04-24T23:32:44;11.9;;;5.4;;
45314;SDS011;31051;51.540;5.852;2023-04-24T23:45:43;10.0;;;4.8;;
45314;SDS011;31051;51.540;5.852;2023-04-24T23:58:42;10.0;;;4.5;;
